createdAt,value
2022-07-26T00:00:30.921Z,99594.00
2022-07-26T00:02:57.901Z,99573.00
2022-07-26T00:05:25.079Z,99542.00
2022-07-26T00:08:10.580Z,99540.00
2022-07-26T00:10:48.865Z,99553.00
2022-07-26T00:13:19.971Z,99545.00
2022-07-26T00:15:48.664Z,99546.00
2022-07-26T00:18:17.106Z,99527.00
2022-07-26T00:20:44.565Z,99529.00
2022-07-26T00:23:11.634Z,99541.00
2022-07-26T00:25:38.665Z,99556.00
2022-07-26T00:28:06.066Z,99554.00
2022-07-26T00:30:33.849Z,99557.00
2022-07-26T00:33:00.889Z,99560.00
2022-07-26T00:35:27.927Z,99557.00
2022-07-26T00:37:54.981Z,99546.00
2022-07-26T00:40:22.630Z,99553.00
2022-07-26T00:42:49.762Z,99535.00
2022-07-26T00:45:17.661Z,99548.00
2022-07-26T00:47:45.649Z,99562.00
2022-07-26T00:50:18.982Z,99551.00
2022-07-26T00:52:49.906Z,99546.00
2022-07-26T00:55:18.271Z,99533.00
2022-07-26T00:57:45.896Z,99548.00
2022-07-26T01:00:21.101Z,99539.00
2022-07-26T01:02:48.551Z,99548.00
2022-07-26T01:05:16.733Z,99542.00
2022-07-26T01:07:44.855Z,99537.00
2022-07-26T01:10:14.004Z,99542.00
2022-07-26T01:12:43.014Z,99547.00
2022-07-26T01:15:13.056Z,99547.00
2022-07-26T01:17:42.956Z,99542.00
2022-07-26T01:20:12.843Z,99545.00
2022-07-26T01:22:40.625Z,99554.00
2022-07-26T01:25:08.690Z,99545.00
2022-07-26T01:27:39.328Z,99530.00
2022-07-26T01:30:11.812Z,99538.00
2022-07-26T01:32:39.368Z,99531.00
2022-07-26T01:35:08.977Z,99516.00
2022-07-26T01:37:36.115Z,99525.00
2022-07-26T01:40:04.739Z,99523.00
2022-07-26T01:42:34.176Z,99520.00
2022-07-26T01:45:01.215Z,99515.00
2022-07-26T01:47:28.194Z,99509.00
2022-07-26T01:49:55.165Z,99497.00
2022-07-26T01:52:22.121Z,99518.00
2022-07-26T01:54:49.104Z,99503.00
2022-07-26T01:57:16.044Z,99513.00
2022-07-26T01:59:42.999Z,99511.00
2022-07-26T02:02:10.198Z,99513.00
2022-07-26T02:04:55.687Z,99513.00
2022-07-26T02:07:22.641Z,99511.00
2022-07-26T02:09:49.913Z,99492.00
2022-07-26T02:12:16.871Z,99510.00
2022-07-26T02:14:43.859Z,99505.00
2022-07-26T02:17:11.506Z,99506.00
2022-07-26T02:19:38.475Z,99506.00
2022-07-26T02:22:06.134Z,99500.00
2022-07-26T02:24:33.408Z,99498.00
2022-07-26T02:27:02.377Z,99503.00
2022-07-26T02:29:29.951Z,99523.00
2022-07-26T02:31:57.598Z,99533.00
2022-07-26T02:34:25.473Z,99508.00
2022-07-26T02:36:52.543Z,99525.00
2022-07-26T02:39:19.964Z,99538.00
2022-07-26T02:41:47.468Z,99531.00
2022-07-26T02:44:14.530Z,99533.00
2022-07-26T02:46:41.557Z,99538.00
2022-07-26T02:49:08.708Z,99537.00
2022-07-26T02:51:35.733Z,99543.00
2022-07-26T02:54:02.689Z,99544.00
2022-07-26T02:56:29.925Z,99551.00
2022-07-26T02:58:57.047Z,99552.00
2022-07-26T03:01:24.207Z,99566.00
2022-07-26T03:03:51.355Z,99577.00
2022-07-26T03:06:19.876Z,99596.00
2022-07-26T03:08:48.406Z,99601.00
2022-07-26T03:11:16.070Z,99613.00
2022-07-26T03:13:43.112Z,99635.00
2022-07-26T03:16:10.730Z,99642.00
2022-07-26T03:18:37.746Z,99649.00
2022-07-26T03:21:04.947Z,99646.00
2022-07-26T03:23:33.541Z,99625.00
2022-07-26T03:26:02.376Z,99613.00
2022-07-26T03:28:33.670Z,99578.00
2022-07-26T03:31:01.260Z,99542.00
2022-07-26T03:33:30.646Z,99526.00
2022-07-26T03:35:57.687Z,99494.00
2022-07-26T03:38:24.807Z,99468.00
2022-07-26T03:40:52.005Z,99511.00
2022-07-26T03:43:23.002Z,99508.00
2022-07-26T03:45:51.217Z,99507.00
2022-07-26T03:48:21.971Z,99524.00
2022-07-26T03:50:49.156Z,99518.00
2022-07-26T03:53:16.140Z,99527.00
2022-07-26T03:56:02.221Z,99539.00
2022-07-26T03:58:31.813Z,99538.00
2022-07-26T04:00:58.778Z,99537.00
2022-07-26T04:03:25.868Z,99506.00
2022-07-26T04:05:52.903Z,99527.00
2022-07-26T04:08:20.104Z,99536.00
2022-07-26T04:10:53.437Z,99539.00
2022-07-26T04:13:20.819Z,99507.00
2022-07-26T04:15:47.807Z,99544.00
2022-07-26T04:18:14.834Z,99546.00
2022-07-26T04:20:42.831Z,99560.00
2022-07-26T04:23:11.349Z,99563.00
2022-07-26T04:25:41.704Z,99579.00
2022-07-26T04:28:10.328Z,99587.00
2022-07-26T04:30:38.954Z,99587.00
2022-07-26T04:33:06.592Z,99567.00
2022-07-26T04:35:35.069Z,99545.00
2022-07-26T04:38:04.138Z,99524.00
2022-07-26T04:40:33.697Z,99546.00
2022-07-26T04:43:01.911Z,99566.00
2022-07-26T04:45:30.184Z,99577.00
2022-07-26T04:47:57.760Z,99600.00
2022-07-26T04:50:25.636Z,99614.00
2022-07-26T04:52:52.835Z,99592.00
2022-07-26T04:55:21.465Z,99571.00
2022-07-26T04:57:50.343Z,99568.00
2022-07-26T05:00:24.266Z,99549.00
2022-07-26T05:02:56.245Z,99545.00
2022-07-26T05:05:25.511Z,99539.00
2022-07-26T05:07:56.425Z,99554.00
2022-07-26T05:10:32.545Z,99578.00
2022-07-26T05:12:59.657Z,99564.00
2022-07-26T05:15:32.992Z,99547.00
2022-07-26T05:18:08.223Z,99557.00
2022-07-26T05:20:39.395Z,99594.00
2022-07-26T05:23:07.178Z,99612.00
2022-07-26T05:25:34.465Z,99638.00
2022-07-26T05:28:01.502Z,99651.00
2022-07-26T05:30:28.656Z,99634.00
2022-07-26T05:32:55.858Z,99615.00
2022-07-26T05:35:22.987Z,99612.00
2022-07-26T05:37:50.005Z,99619.00
2022-07-26T05:40:17.132Z,99612.00
2022-07-26T05:42:44.138Z,99615.00
2022-07-26T05:45:11.620Z,99614.00
2022-07-26T05:47:38.617Z,99607.00
2022-07-26T05:50:07.157Z,99612.00
2022-07-26T05:52:37.166Z,99597.00
2022-07-26T05:55:04.682Z,99575.00
2022-07-26T05:57:31.678Z,99600.00
2022-07-26T05:59:58.754Z,99611.00
2022-07-26T06:02:25.871Z,99616.00
2022-07-26T06:04:52.932Z,99620.00
2022-07-26T06:07:20.007Z,99610.00
2022-07-26T06:09:47.109Z,99619.00
2022-07-26T06:12:14.159Z,99616.00
2022-07-26T06:14:41.306Z,99620.00
2022-07-26T06:17:08.407Z,99627.00
2022-07-26T06:19:36.085Z,99629.00
2022-07-26T06:22:03.850Z,99647.00
2022-07-26T06:24:31.530Z,99654.00
2022-07-26T06:27:05.042Z,99650.00
2022-07-26T06:29:34.038Z,99646.00
2022-07-26T06:32:01.247Z,99648.00
2022-07-26T06:34:28.830Z,99645.00
2022-07-26T06:36:56.179Z,99664.00
2022-07-26T06:39:23.551Z,99678.00
2022-07-26T06:41:50.928Z,99700.00
2022-07-26T06:44:18.155Z,99715.00
2022-07-26T06:46:45.500Z,99713.00
2022-07-26T06:49:13.541Z,99692.00
2022-07-26T06:51:40.952Z,99695.00
2022-07-26T06:54:08.694Z,99724.00
2022-07-26T06:56:36.185Z,99719.00
2022-07-26T06:59:09.031Z,99720.00
2022-07-26T07:01:55.599Z,99722.00
2022-07-26T07:04:23.984Z,99733.00
2022-07-26T07:06:51.422Z,99730.00
2022-07-26T07:09:20.092Z,99733.00
2022-07-26T07:11:51.824Z,99727.00
2022-07-26T07:14:26.004Z,99738.00
2022-07-26T07:16:56.067Z,99734.00
2022-07-26T07:19:24.097Z,99740.00
2022-07-26T07:21:52.034Z,99728.00
2022-07-26T07:24:20.263Z,99724.00
2022-07-26T07:26:48.090Z,99715.00
2022-07-26T07:29:17.485Z,99720.00
2022-07-26T07:31:48.541Z,99718.00
2022-07-26T07:34:22.958Z,99721.00
2022-07-26T07:36:52.780Z,99716.00
2022-07-26T07:39:20.499Z,99705.00
2022-07-26T07:41:48.951Z,99708.00
2022-07-26T07:44:16.818Z,99699.00
2022-07-26T07:46:44.207Z,99690.00
2022-07-26T07:49:12.326Z,99689.00
2022-07-26T07:51:40.074Z,99689.00
2022-07-26T07:54:07.437Z,99702.00
2022-07-26T07:56:35.661Z,99703.00
2022-07-26T07:59:03.018Z,99706.00
2022-07-26T08:01:40.693Z,99722.00
2022-07-26T08:04:09.666Z,99727.00
2022-07-26T08:06:37.455Z,99723.00
2022-07-26T08:09:09.416Z,99721.00
2022-07-26T08:11:41.840Z,99723.00
2022-07-26T08:14:09.989Z,99727.00
2022-07-26T08:16:37.450Z,99711.00
2022-07-26T08:19:05.087Z,99729.00
2022-07-26T08:21:32.324Z,99728.00
2022-07-26T08:26:45.659Z,99738.00
2022-07-26T08:29:13.416Z,99737.00
2022-07-26T08:31:41.587Z,99713.00
2022-07-26T08:34:10.354Z,99734.00
2022-07-26T08:36:41.960Z,99737.00
2022-07-26T08:39:17.338Z,99743.00
2022-07-26T08:41:44.942Z,99747.00
2022-07-26T08:44:12.540Z,99731.00
2022-07-26T08:46:43.207Z,99748.00
2022-07-26T08:49:13.261Z,99749.00
2022-07-26T08:51:44.956Z,99749.00
2022-07-26T08:54:16.145Z,99749.00
2022-07-26T08:56:53.000Z,99753.00
2022-07-26T08:59:22.721Z,99753.00
2022-07-26T09:01:57.454Z,99754.00
2022-07-26T09:04:33.503Z,99756.00
2022-07-26T09:07:09.339Z,99755.00
2022-07-26T09:09:59.480Z,99750.00
2022-07-26T09:12:29.024Z,99758.00
2022-07-26T09:14:57.458Z,99770.00
2022-07-26T09:17:38.014Z,99760.00
2022-07-26T09:20:12.121Z,99756.00
2022-07-26T09:23:08.034Z,99761.00
2022-07-26T09:25:45.513Z,99756.00
2022-07-26T09:28:29.631Z,99745.00
2022-07-26T09:31:05.201Z,99757.00
2022-07-26T09:33:51.356Z,99740.00
2022-07-26T09:36:19.587Z,99746.00
2022-07-26T09:38:50.756Z,99759.00
2022-07-26T09:41:23.184Z,99771.00
2022-07-26T09:43:54.164Z,99761.00
2022-07-26T09:46:26.250Z,99775.00
2022-07-26T09:49:13.652Z,99761.00
2022-07-26T09:51:47.871Z,99782.00
2022-07-26T09:54:35.305Z,99788.00
2022-07-26T09:57:04.224Z,99785.00
2022-07-26T09:59:31.717Z,99772.00
2022-07-26T10:02:01.104Z,99782.00
2022-07-26T10:04:28.397Z,99784.00
2022-07-26T10:06:58.266Z,99778.00
2022-07-26T10:09:48.671Z,99773.00
2022-07-26T10:12:17.791Z,99782.00
2022-07-26T10:14:49.505Z,99792.00
2022-07-26T10:17:31.398Z,99794.00
2022-07-26T10:20:09.355Z,99758.00
2022-07-26T10:22:47.944Z,99792.00
2022-07-26T10:25:18.306Z,99794.00
2022-07-26T10:27:54.424Z,99797.00
2022-07-26T10:30:33.624Z,99794.00
2022-07-26T10:33:13.514Z,99802.00
2022-07-26T10:35:43.761Z,99791.00
2022-07-26T10:38:12.076Z,99797.00
2022-07-26T10:40:57.434Z,99792.00
2022-07-26T10:43:42.086Z,99810.00
2022-07-26T10:46:19.258Z,99821.00
2022-07-26T10:49:18.848Z,99808.00
2022-07-26T10:51:46.064Z,99803.00
2022-07-26T10:54:15.845Z,99811.00
2022-07-26T10:56:43.415Z,99810.00
2022-07-26T10:59:10.781Z,99819.00
2022-07-26T11:01:43.587Z,99823.00
2022-07-26T11:04:23.991Z,99810.00
2022-07-26T11:06:52.066Z,99835.00
2022-07-26T11:09:21.151Z,99834.00
2022-07-26T11:11:52.557Z,99831.00
2022-07-26T11:14:19.810Z,99821.00
2022-07-26T11:16:52.450Z,99823.00
2022-07-26T11:19:25.974Z,99821.00
2022-07-26T11:22:01.210Z,99821.00
2022-07-26T11:24:29.579Z,99805.00
2022-07-26T11:27:03.622Z,99817.00
2022-07-26T11:29:38.410Z,99812.00
2022-07-26T11:32:25.474Z,99810.00
2022-07-26T11:35:05.073Z,99821.00
2022-07-26T11:37:32.451Z,99821.00
2022-07-26T11:39:59.676Z,99824.00
2022-07-26T11:42:27.160Z,99824.00
2022-07-26T11:44:54.649Z,99826.00
2022-07-26T11:47:26.350Z,99825.00
2022-07-26T11:50:13.864Z,99811.00
2022-07-26T11:52:41.946Z,99829.00
2022-07-26T11:55:09.786Z,99812.00
2022-07-26T11:57:37.503Z,99802.00
2022-07-26T12:00:06.170Z,99810.00
2022-07-26T12:02:33.545Z,99812.00
2022-07-26T12:05:33.491Z,99827.00
2022-07-26T12:08:05.113Z,99808.00
2022-07-26T12:10:33.073Z,99819.00
2022-07-26T12:13:16.629Z,99800.00
2022-07-26T12:15:53.928Z,99800.00
2022-07-26T12:18:29.617Z,99804.00
2022-07-26T12:21:08.059Z,99796.00
2022-07-26T12:23:49.417Z,99806.00
2022-07-26T12:26:23.378Z,99775.00
2022-07-26T12:28:51.101Z,99811.00
2022-07-26T12:31:29.023Z,99800.00
2022-07-26T12:33:57.112Z,99800.00
2022-07-26T12:36:27.627Z,99798.00
2022-07-26T12:39:00.460Z,99796.00
2022-07-26T12:41:40.411Z,99794.00
2022-07-26T12:44:12.704Z,99799.00
2022-07-26T12:46:40.384Z,99795.00
2022-07-26T12:49:07.728Z,99802.00
2022-07-26T12:51:35.041Z,99806.00
2022-07-26T12:54:06.978Z,99797.00
2022-07-26T12:56:35.298Z,99805.00
2022-07-26T12:59:02.526Z,99822.00
2022-07-26T13:01:32.116Z,99811.00
2022-07-26T13:03:59.990Z,99803.00
2022-07-26T13:06:27.296Z,99812.00
2022-07-26T13:08:54.507Z,99813.00
2022-07-26T13:11:21.745Z,99806.00
2022-07-26T13:13:49.699Z,99810.00
2022-07-26T13:16:17.139Z,99809.00
2022-07-26T13:18:44.663Z,99794.00
2022-07-26T13:21:12.181Z,99800.00
2022-07-26T13:23:39.523Z,99798.00
2022-07-26T13:26:09.253Z,99805.00
2022-07-26T13:28:37.965Z,99796.00
2022-07-26T13:31:05.755Z,99797.00
2022-07-26T13:33:33.775Z,99812.00
2022-07-26T13:36:02.458Z,99801.00
2022-07-26T13:38:33.563Z,99804.00
2022-07-26T13:41:05.316Z,99807.00
2022-07-26T13:43:32.702Z,99813.00
2022-07-26T13:46:00.182Z,99812.00
2022-07-26T13:48:27.636Z,99823.00
2022-07-26T13:50:55.542Z,99812.00
2022-07-26T13:53:24.553Z,99819.00
2022-07-26T13:55:52.176Z,99820.00
2022-07-26T13:58:21.770Z,99819.00
2022-07-26T14:00:49.878Z,99818.00
2022-07-26T14:03:17.496Z,99813.00
2022-07-26T14:05:44.735Z,99793.00
2022-07-26T14:08:12.445Z,99810.00
2022-07-26T14:10:41.014Z,99813.00
2022-07-26T14:13:09.701Z,99818.00
2022-07-26T14:15:37.192Z,99818.00
2022-07-26T14:18:04.682Z,99813.00
2022-07-26T14:20:32.045Z,99825.00
2022-07-26T14:23:00.505Z,99835.00
2022-07-26T14:25:28.675Z,99840.00
2022-07-26T14:27:56.284Z,99833.00
2022-07-26T14:30:24.247Z,99830.00
2022-07-26T14:32:51.716Z,99829.00
2022-07-26T14:35:19.004Z,99835.00
2022-07-26T14:37:46.536Z,99850.00
2022-07-26T14:40:17.425Z,99847.00
2022-07-26T14:42:46.345Z,99851.00
2022-07-26T14:45:14.821Z,99850.00
2022-07-26T14:47:43.237Z,99854.00
2022-07-26T14:50:12.270Z,99849.00
2022-07-26T14:52:47.673Z,99855.00
2022-07-26T14:55:20.333Z,99852.00
2022-07-26T14:57:50.436Z,99866.00
2022-07-26T15:00:18.883Z,99856.00
2022-07-26T15:02:49.110Z,99871.00
2022-07-26T15:05:17.918Z,99869.00
2022-07-26T15:07:46.372Z,99868.00
2022-07-26T15:10:15.177Z,99860.00
2022-07-26T15:12:44.321Z,99864.00
2022-07-26T15:15:12.418Z,99859.00
2022-07-26T15:17:39.918Z,99856.00
2022-07-26T15:20:08.121Z,99856.00
2022-07-26T15:22:35.948Z,99851.00
2022-07-26T15:25:04.156Z,99850.00
2022-07-26T15:27:31.641Z,99849.00
2022-07-26T15:30:04.126Z,99851.00
2022-07-26T15:32:32.238Z,99860.00
2022-07-26T15:34:59.729Z,99857.00
2022-07-26T15:37:27.825Z,99860.00
2022-07-26T15:39:55.054Z,99858.00
2022-07-26T15:42:22.668Z,99862.00
2022-07-26T15:44:51.042Z,99860.00
2022-07-26T15:47:36.921Z,99860.00
2022-07-26T15:50:08.987Z,99858.00
2022-07-26T15:52:39.227Z,99862.00
2022-07-26T15:55:08.891Z,99855.00
2022-07-26T15:57:36.822Z,99850.00
2022-07-26T16:00:11.143Z,99861.00
2022-07-26T16:02:40.343Z,99866.00
2022-07-26T16:05:10.082Z,99856.00
2022-07-26T16:07:38.541Z,99860.00
2022-07-26T16:10:06.841Z,99855.00
2022-07-26T16:12:34.316Z,99861.00
2022-07-26T16:15:01.451Z,99860.00
2022-07-26T16:17:29.163Z,99848.00
2022-07-26T16:19:56.661Z,99852.00
2022-07-26T16:22:24.131Z,99846.00
2022-07-26T16:24:51.737Z,99845.00
2022-07-26T16:27:19.101Z,99846.00
2022-07-26T16:29:50.357Z,99854.00
2022-07-26T16:32:21.481Z,99854.00
2022-07-26T16:34:48.876Z,99852.00
2022-07-26T16:37:18.142Z,99862.00
2022-07-26T16:39:49.445Z,99861.00
2022-07-26T16:42:16.842Z,99852.00
2022-07-26T16:44:44.098Z,99858.00
2022-07-26T16:47:11.268Z,99870.00
2022-07-26T16:49:38.689Z,99873.00
2022-07-26T16:52:06.589Z,99870.00
2022-07-26T16:54:34.135Z,99885.00
2022-07-26T16:57:01.649Z,99884.00
2022-07-26T16:59:29.015Z,99885.00
2022-07-26T17:01:56.412Z,99884.00
2022-07-26T17:04:28.995Z,99894.00
2022-07-26T17:07:22.408Z,99915.00
2022-07-26T17:09:43.523Z,99921.00
2022-07-26T17:12:10.885Z,99919.00
2022-07-26T17:14:38.239Z,99930.00
2022-07-26T17:17:05.595Z,99925.00
2022-07-26T17:19:32.850Z,99952.00
2022-07-26T17:22:00.095Z,99959.00
2022-07-26T17:24:27.331Z,99975.00
2022-07-26T17:26:55.433Z,99981.00
2022-07-26T17:29:22.655Z,100001.00
2022-07-26T17:31:50.517Z,100010.00
2022-07-26T17:34:19.206Z,99996.00
2022-07-26T17:36:46.730Z,99988.00
2022-07-26T17:39:14.190Z,99996.00
2022-07-26T17:41:47.702Z,99978.00
2022-07-26T17:44:15.241Z,99976.00
2022-07-26T17:46:42.920Z,99966.00
2022-07-26T17:49:10.746Z,99962.00
2022-07-26T17:51:38.772Z,99966.00
2022-07-26T17:54:06.491Z,99968.00
2022-07-26T17:56:34.324Z,99965.00
2022-07-26T17:59:01.937Z,99967.00
2022-07-26T18:01:29.488Z,99971.00
2022-07-26T18:03:56.901Z,99966.00
2022-07-26T18:06:24.256Z,99967.00
2022-07-26T18:08:51.618Z,99967.00
2022-07-26T18:11:18.983Z,99973.00
2022-07-26T18:13:46.474Z,99972.00
2022-07-26T18:16:14.398Z,99970.00
2022-07-26T18:18:41.939Z,99969.00
2022-07-26T18:21:09.401Z,99979.00
2022-07-26T18:23:37.380Z,99970.00
2022-07-26T18:26:05.709Z,99985.00
2022-07-26T18:28:33.045Z,99979.00
2022-07-26T18:31:00.478Z,99983.00
2022-07-26T18:33:27.799Z,99975.00
2022-07-26T18:36:01.021Z,99983.00
2022-07-26T18:38:28.625Z,99979.00
2022-07-26T18:40:56.586Z,99977.00
2022-07-26T18:43:23.955Z,99991.00
2022-07-26T18:45:51.666Z,99991.00
2022-07-26T18:48:18.926Z,99992.00
2022-07-26T18:50:47.017Z,99994.00
2022-07-26T18:53:14.474Z,99996.00
2022-07-26T18:55:41.848Z,99989.00
2022-07-26T18:58:09.366Z,99975.00
2022-07-26T19:00:37.049Z,100004.00
2022-07-26T19:03:04.899Z,100006.00
2022-07-26T19:05:35.241Z,100001.00
2022-07-26T19:08:04.291Z,100013.00
2022-07-26T19:10:32.133Z,100016.00
2022-07-26T19:12:59.297Z,100027.00
2022-07-26T19:15:26.638Z,100016.00
2022-07-26T19:17:54.480Z,100019.00
2022-07-26T19:20:22.065Z,100026.00
2022-07-26T19:22:51.019Z,100019.00
2022-07-26T19:25:21.726Z,100025.00
2022-07-26T19:27:48.972Z,100026.00
2022-07-26T19:30:16.213Z,100024.00
2022-07-26T19:32:43.562Z,100029.00
2022-07-26T19:35:10.854Z,100025.00
2022-07-26T19:37:38.213Z,100036.00
2022-07-26T19:40:06.632Z,100032.00
2022-07-26T19:42:33.980Z,100031.00
2022-07-26T19:45:01.339Z,100039.00
2022-07-26T19:47:29.901Z,100040.00
2022-07-26T19:49:57.774Z,100047.00
2022-07-26T19:52:25.121Z,100040.00
2022-07-26T19:54:53.089Z,100045.00
2022-07-26T19:57:20.801Z,100035.00
2022-07-26T19:59:48.420Z,100035.00
2022-07-26T20:13:35.311Z,100046.00
2022-07-26T20:16:04.699Z,100042.00
2022-07-26T20:18:33.058Z,100048.00
2022-07-26T20:21:00.130Z,100046.00
2022-07-26T20:23:28.811Z,100058.00
2022-07-26T20:25:55.901Z,100049.00
2022-07-26T20:28:22.938Z,100051.00
2022-07-26T20:30:51.704Z,100053.00
2022-07-26T20:33:19.230Z,100058.00
2022-07-26T20:35:48.413Z,100042.00
2022-07-26T20:38:19.663Z,100061.00
2022-07-26T20:40:47.385Z,100061.00
2022-07-26T20:43:14.615Z,100048.00
2022-07-26T20:45:41.612Z,100060.00
2022-07-26T20:48:08.892Z,100050.00
2022-07-26T20:50:36.555Z,100073.00
2022-07-26T20:53:04.185Z,100077.00
2022-07-26T20:55:31.327Z,100048.00
2022-07-26T20:57:58.381Z,100076.00
2022-07-26T21:00:26.485Z,100080.00
2022-07-26T21:02:54.001Z,100075.00
2022-07-26T21:05:21.138Z,100068.00
2022-07-26T21:07:53.923Z,100076.00
2022-07-26T21:10:27.047Z,100074.00
2022-07-26T21:12:57.146Z,100086.00
2022-07-26T21:15:24.370Z,100080.00
2022-07-26T21:17:52.521Z,100078.00
2022-07-26T21:20:20.657Z,100081.00
2022-07-26T21:22:48.729Z,100089.00
2022-07-26T21:25:15.832Z,100089.00
2022-07-26T21:27:43.034Z,100077.00
2022-07-26T21:30:10.698Z,100095.00
2022-07-26T21:32:37.844Z,100098.00
2022-07-26T21:35:05.607Z,100094.00
2022-07-26T21:37:32.692Z,100096.00
2022-07-26T21:40:00.727Z,100099.00
2022-07-26T21:42:28.234Z,100107.00
2022-07-26T21:44:55.196Z,100098.00
2022-07-26T21:47:22.256Z,100112.00
2022-07-26T21:49:49.273Z,100107.00
2022-07-26T21:52:16.269Z,100110.00
2022-07-26T21:54:43.200Z,100115.00
2022-07-26T21:57:10.272Z,100110.00
2022-07-26T21:59:37.384Z,100116.00
2022-07-26T22:02:04.478Z,100110.00
2022-07-26T22:04:31.507Z,100111.00
2022-07-26T22:06:58.629Z,100113.00
2022-07-26T22:09:25.697Z,100111.00
2022-07-26T22:11:53.389Z,100111.00
2022-07-26T22:14:21.342Z,100111.00
2022-07-26T22:16:49.489Z,100113.00
2022-07-26T22:19:16.606Z,100118.00
2022-07-26T22:21:43.828Z,100125.00
2022-07-26T22:24:11.056Z,100122.00
2022-07-26T22:26:38.114Z,100125.00
2022-07-26T22:29:05.099Z,100123.00
2022-07-26T22:31:32.383Z,100117.00
2022-07-26T22:33:59.356Z,100120.00
2022-07-26T22:36:26.385Z,100120.00
2022-07-26T22:38:53.525Z,100122.00
2022-07-26T22:41:20.484Z,100134.00
2022-07-26T22:43:47.513Z,100122.00
2022-07-26T22:46:14.531Z,100111.00
2022-07-26T22:48:44.534Z,100108.00
2022-07-26T22:51:14.840Z,100132.00
2022-07-26T22:53:42.416Z,100125.00
2022-07-26T22:56:09.424Z,100124.00
2022-07-26T22:58:38.144Z,100127.00
2022-07-26T23:01:05.757Z,100122.00
2022-07-26T23:03:32.812Z,100126.00
2022-07-26T23:06:02.829Z,100133.00
2022-07-26T23:08:47.924Z,100131.00
2022-07-26T23:11:15.063Z,100130.00
2022-07-26T23:13:42.027Z,100123.00
2022-07-26T23:16:09.036Z,100134.00
2022-07-26T23:18:36.598Z,100128.00
2022-07-26T23:21:04.260Z,100124.00
2022-07-26T23:23:31.891Z,100123.00
2022-07-26T23:26:00.148Z,100128.00
2022-07-26T23:28:35.541Z,100126.00
2022-07-26T23:31:10.317Z,100123.00
2022-07-26T23:33:53.076Z,100122.00
2022-07-26T23:36:23.901Z,100135.00
2022-07-26T23:38:51.270Z,100125.00
2022-07-26T23:41:19.342Z,100122.00
2022-07-26T23:43:46.358Z,100126.00
2022-07-26T23:46:13.656Z,100118.00
2022-07-26T23:48:40.803Z,100113.00
2022-07-26T23:51:08.223Z,100121.00
2022-07-26T23:53:35.279Z,100123.00
2022-07-26T23:56:02.542Z,100127.00
2022-07-26T23:58:29.571Z,100126.00
